createdAt,value
2018-07-30T00:00:47.850Z,19.30
2018-07-30T00:03:15.993Z,19.30
2018-07-30T00:08:12.852Z,19.20
2018-07-30T00:10:49.683Z,19.20
2018-07-30T00:13:17.826Z,19.10
2018-07-30T00:15:45.672Z,19.00
2018-07-30T00:18:13.608Z,18.90
2018-07-30T00:20:41.864Z,18.90
2018-07-30T00:23:09.605Z,18.90
2018-07-30T00:25:37.348Z,18.80
2018-07-30T00:28:12.414Z,18.80
2018-07-30T00:30:40.408Z,18.80
2018-07-30T00:33:08.164Z,18.80
2018-07-30T00:35:35.997Z,18.80
2018-07-30T00:38:03.799Z,18.70
2018-07-30T00:40:31.561Z,18.70
2018-07-30T00:42:59.369Z,18.70
2018-07-30T00:45:27.241Z,18.60
2018-07-30T00:47:55.001Z,18.60
2018-07-30T00:50:22.765Z,18.50
2018-07-30T00:52:50.715Z,18.50
2018-07-30T00:55:18.411Z,18.50
2018-07-30T00:57:46.539Z,18.60
2018-07-30T01:00:30.999Z,18.40
2018-07-30T01:02:59.017Z,18.40
2018-07-30T01:05:27.031Z,18.30
2018-07-30T01:07:54.879Z,18.20
2018-07-30T01:10:22.733Z,18.10
2018-07-30T01:12:50.587Z,18.10
2018-07-30T01:15:18.950Z,18.10
2018-07-30T01:17:46.910Z,18.10
2018-07-30T01:20:14.721Z,18.10
2018-07-30T01:22:42.569Z,18.00
2018-07-30T01:25:10.506Z,18.00
2018-07-30T01:30:06.899Z,18.00
2018-07-30T01:32:40.407Z,17.90
2018-07-30T01:35:17.164Z,17.90
2018-07-30T01:37:55.601Z,17.80
2018-07-30T01:40:25.371Z,17.80
2018-07-30T01:42:53.231Z,17.80
2018-07-30T01:45:21.147Z,17.80
2018-07-30T01:47:48.854Z,17.80
2018-07-30T01:50:16.678Z,17.70
2018-07-30T01:52:45.051Z,17.70
2018-07-30T01:55:12.858Z,17.70
2018-07-30T01:57:40.600Z,17.60
2018-07-30T02:00:08.837Z,17.50
2018-07-30T02:02:41.223Z,17.50
2018-07-30T02:05:09.238Z,17.40
2018-07-30T02:07:37.783Z,17.40
2018-07-30T02:10:06.963Z,17.40
2018-07-30T02:12:34.722Z,17.40
2018-07-30T02:15:02.756Z,17.30
2018-07-30T02:17:30.496Z,17.30
2018-07-30T02:19:58.628Z,17.30
2018-07-30T02:22:26.656Z,17.20
2018-07-30T02:24:54.425Z,17.20
2018-07-30T02:27:22.142Z,17.10
2018-07-30T02:29:49.868Z,17.10
2018-07-30T02:32:17.719Z,17.20
2018-07-30T02:34:45.700Z,17.10
2018-07-30T02:37:14.034Z,17.10
2018-07-30T02:39:41.694Z,17.10
2018-07-30T02:42:09.631Z,17.10
2018-07-30T02:44:37.540Z,17.10
2018-07-30T02:47:05.354Z,17.00
2018-07-30T02:49:33.315Z,17.00
2018-07-30T02:52:01.341Z,16.90
2018-07-30T02:54:29.372Z,16.90
2018-07-30T02:56:57.076Z,16.90
2018-07-30T02:59:24.844Z,16.90
2018-07-30T03:01:52.682Z,16.90
2018-07-30T03:04:20.779Z,16.90
2018-07-30T03:06:48.679Z,16.80
2018-07-30T03:11:44.277Z,16.80
2018-07-30T03:14:11.965Z,16.80
2018-07-30T03:16:39.814Z,16.80
2018-07-30T03:19:07.638Z,16.70
2018-07-30T03:21:35.392Z,16.70
2018-07-30T03:24:03.134Z,16.70
2018-07-30T03:26:30.862Z,16.70
2018-07-30T03:28:58.665Z,16.70
2018-07-30T03:34:04.449Z,16.60
2018-07-30T03:36:40.212Z,16.60
2018-07-30T03:39:15.944Z,16.60
2018-07-30T03:41:54.591Z,16.60
2018-07-30T03:44:22.798Z,16.60
2018-07-30T03:46:50.753Z,16.60
2018-07-30T03:49:18.789Z,16.50
2018-07-30T03:51:46.803Z,16.50
2018-07-30T03:54:14.623Z,16.50
2018-07-30T03:56:42.428Z,16.50
2018-07-30T03:59:10.228Z,16.60
2018-07-30T04:01:37.895Z,16.60
2018-07-30T04:04:06.191Z,16.50
2018-07-30T04:06:34.576Z,16.50
2018-07-30T04:09:02.293Z,16.50
2018-07-30T04:11:31.193Z,16.60
2018-07-30T04:13:58.850Z,16.60
2018-07-30T04:16:26.635Z,16.50
2018-07-30T04:18:54.254Z,16.60
2018-07-30T04:21:22.206Z,16.60
2018-07-30T04:23:49.912Z,16.60
2018-07-30T04:26:17.904Z,16.70
2018-07-30T04:28:45.867Z,16.70
2018-07-30T04:31:13.733Z,16.80
2018-07-30T04:33:41.430Z,16.90
2018-07-30T04:36:09.527Z,17.00
2018-07-30T04:38:37.400Z,17.10
2018-07-30T04:41:05.483Z,17.20
2018-07-30T04:43:33.180Z,17.30
2018-07-30T04:46:01.067Z,17.60
2018-07-30T04:50:57.188Z,19.00
2018-07-30T04:53:25.036Z,19.80
2018-07-30T04:55:52.773Z,20.60
2018-07-30T04:58:20.580Z,21.20
2018-07-30T05:00:48.341Z,21.60
2018-07-30T05:03:16.112Z,22.00
2018-07-30T05:05:43.971Z,22.30
2018-07-30T05:08:11.665Z,22.80
2018-07-30T05:10:39.575Z,22.80
2018-07-30T05:13:08.036Z,23.20
2018-07-30T05:15:35.767Z,23.50
2018-07-30T05:18:03.594Z,23.40
2018-07-30T05:20:31.453Z,23.40
2018-07-30T05:22:59.290Z,23.40
2018-07-30T05:25:27.206Z,23.40
2018-07-30T05:27:55.431Z,23.60
2018-07-30T05:30:23.196Z,23.90
2018-07-30T05:32:50.922Z,24.30
2018-07-30T05:35:19.119Z,24.60
2018-07-30T05:37:46.927Z,25.00
2018-07-30T05:40:14.929Z,25.30
2018-07-30T05:42:42.919Z,25.80
2018-07-30T05:45:11.286Z,26.00
2018-07-30T05:47:39.219Z,26.30
2018-07-30T05:52:34.840Z,26.80
2018-07-30T05:55:02.816Z,26.80
2018-07-30T05:57:30.516Z,26.80
2018-07-30T05:59:59.412Z,27.10
2018-07-30T06:02:27.186Z,27.50
2018-07-30T06:04:55.138Z,27.60
2018-07-30T06:07:22.831Z,27.90
2018-07-30T06:09:55.279Z,28.40
2018-07-30T06:12:23.026Z,28.60
2018-07-30T06:14:51.181Z,29.00
2018-07-30T06:17:19.246Z,29.60
2018-07-30T06:19:47.149Z,29.90
2018-07-30T06:22:14.906Z,30.70
2018-07-30T06:24:42.956Z,30.80
2018-07-30T06:27:11.740Z,30.90
2018-07-30T06:29:39.691Z,31.70
2018-07-30T06:32:07.711Z,32.10
2018-07-30T06:34:35.779Z,32.00
2018-07-30T06:37:03.714Z,32.80
2018-07-30T06:39:32.491Z,33.50
2018-07-30T06:42:00.391Z,34.10
2018-07-30T06:44:28.412Z,34.20
2018-07-30T06:46:57.187Z,35.10
2018-07-30T06:49:25.486Z,35.50
2018-07-30T06:51:53.398Z,35.30
2018-07-30T06:54:21.377Z,35.00
2018-07-30T06:56:49.154Z,34.50
2018-07-30T06:59:19.334Z,34.50
2018-07-30T07:01:47.973Z,35.30
2018-07-30T07:04:17.990Z,35.30
2018-07-30T07:06:45.785Z,35.70
2018-07-30T07:09:13.640Z,35.70
2018-07-30T07:11:41.524Z,36.70
2018-07-30T07:14:09.222Z,37.10
2018-07-30T07:16:37.334Z,36.40
2018-07-30T07:19:05.254Z,36.30
2018-07-30T07:21:34.528Z,37.50
2018-07-30T07:24:02.160Z,37.80
2018-07-30T07:26:29.866Z,37.80
2018-07-30T07:29:07.258Z,37.90
2018-07-30T07:31:50.671Z,36.90
2018-07-30T07:34:23.592Z,36.90
2018-07-30T07:36:51.892Z,37.30
2018-07-30T07:39:19.666Z,38.00
2018-07-30T07:41:47.330Z,37.80
2018-07-30T07:44:15.308Z,38.10
2018-07-30T07:46:43.128Z,37.70
2018-07-30T07:49:10.791Z,38.30
2018-07-30T07:51:38.898Z,38.70
2018-07-30T07:54:06.620Z,38.40
2018-07-30T07:56:34.797Z,38.40
2018-07-30T07:59:02.484Z,38.10
2018-07-30T08:01:30.306Z,38.00
2018-07-30T08:03:57.998Z,38.90
2018-07-30T08:06:25.739Z,38.80
2018-07-30T08:08:53.588Z,39.10
2018-07-30T08:11:21.279Z,39.40
2018-07-30T08:13:49.127Z,38.90
2018-07-30T08:16:17.043Z,38.40
2018-07-30T08:18:45.210Z,37.60
2018-07-30T08:21:12.931Z,37.70
2018-07-30T08:23:40.635Z,38.70
2018-07-30T08:26:08.588Z,39.30
2018-07-30T08:28:36.519Z,40.30
2018-07-30T08:31:04.236Z,40.60
2018-07-30T08:33:32.168Z,40.80
2018-07-30T08:36:00.241Z,41.70
2018-07-30T08:38:27.963Z,39.70
2018-07-30T08:40:55.645Z,40.20
2018-07-30T08:43:23.318Z,39.50
2018-07-30T08:45:51.106Z,39.40
2018-07-30T08:48:19.072Z,38.90
2018-07-30T08:50:47.138Z,39.00
2018-07-30T08:53:14.807Z,39.60
2018-07-30T08:55:42.661Z,38.90
2018-07-30T08:58:10.788Z,39.80
2018-07-30T09:00:38.667Z,40.40
2018-07-30T09:03:06.323Z,40.00
2018-07-30T09:05:34.250Z,40.40
2018-07-30T09:08:01.966Z,40.40
2018-07-30T09:10:29.652Z,41.40
2018-07-30T09:12:57.972Z,42.20
2018-07-30T09:15:27.379Z,41.70
2018-07-30T09:17:55.309Z,41.60
2018-07-30T09:20:23.035Z,41.80
2018-07-30T09:22:51.391Z,42.10
2018-07-30T09:25:19.504Z,41.70
2018-07-30T09:27:47.134Z,41.20
2018-07-30T09:30:14.929Z,41.00
2018-07-30T09:32:42.658Z,41.40
2018-07-30T09:35:10.403Z,41.80
2018-07-30T09:37:38.237Z,42.30
2018-07-30T09:40:06.134Z,41.70
2018-07-30T09:42:34.243Z,41.80
2018-07-30T09:45:02.408Z,41.30
2018-07-30T09:47:30.103Z,40.50
2018-07-30T09:49:57.890Z,40.80
2018-07-30T09:52:25.624Z,41.50
2018-07-30T09:54:53.415Z,41.20
2018-07-30T09:57:21.130Z,40.50
2018-07-30T09:59:49.021Z,40.80
2018-07-30T10:02:17.006Z,41.50
2018-07-30T10:04:44.786Z,41.30
2018-07-30T10:07:18.046Z,41.00
2018-07-30T10:09:45.788Z,40.70
2018-07-30T10:12:17.781Z,40.20
2018-07-30T10:14:53.556Z,39.40
2018-07-30T10:17:21.314Z,39.30
2018-07-30T10:19:49.114Z,40.50
2018-07-30T10:22:16.910Z,40.40
2018-07-30T10:24:44.919Z,40.40
2018-07-30T10:27:12.770Z,40.60
2018-07-30T10:29:40.406Z,40.60
2018-07-30T10:32:14.762Z,41.00
2018-07-30T10:34:43.033Z,41.00
2018-07-30T10:37:10.638Z,40.90
2018-07-30T10:39:38.451Z,41.10
2018-07-30T10:42:06.242Z,40.80
2018-07-30T10:44:33.993Z,40.80
2018-07-30T10:47:01.747Z,41.20
2018-07-30T10:49:29.591Z,40.60
2018-07-30T10:52:00.858Z,40.00
2018-07-30T10:54:34.128Z,38.80
2018-07-30T10:57:09.470Z,39.40
2018-07-30T10:59:37.094Z,40.10
2018-07-30T11:02:04.864Z,39.50
2018-07-30T11:04:32.568Z,39.40
2018-07-30T11:07:00.338Z,39.30
2018-07-30T11:09:28.264Z,39.60
2018-07-30T11:11:55.927Z,39.30
2018-07-30T11:14:23.590Z,38.80
2018-07-30T11:16:54.302Z,39.40
2018-07-30T11:19:22.019Z,39.70
2018-07-30T11:21:49.646Z,39.10
2018-07-30T11:24:17.288Z,37.60
2018-07-30T11:26:44.911Z,37.50
2018-07-30T11:31:40.592Z,36.70
2018-07-30T11:34:08.582Z,36.00
2018-07-30T11:36:36.658Z,35.40
2018-07-30T11:39:08.498Z,35.40
2018-07-30T11:41:36.412Z,34.90
2018-07-30T11:44:04.042Z,34.80
2018-07-30T11:46:31.780Z,34.80
2018-07-30T11:48:59.457Z,34.40
2018-07-30T11:51:27.336Z,34.50
2018-07-30T11:53:55.231Z,34.50
2018-07-30T11:56:23.073Z,34.30
2018-07-30T11:58:51.139Z,33.30
2018-07-30T12:01:19.222Z,34.20
2018-07-30T12:03:46.914Z,33.90
2018-07-30T12:06:14.683Z,33.60
2018-07-30T12:08:42.321Z,33.50
2018-07-30T12:11:10.391Z,33.60
2018-07-30T12:13:38.593Z,33.70
2018-07-30T12:16:08.308Z,33.60
2018-07-30T12:18:37.279Z,33.60
2018-07-30T12:21:05.434Z,33.80
2018-07-30T12:23:33.071Z,33.80
2018-07-30T12:26:00.763Z,33.80
2018-07-30T12:28:28.426Z,33.70
2018-07-30T12:30:57.283Z,33.70
2018-07-30T12:33:25.088Z,33.80
2018-07-30T12:35:53.793Z,33.70
2018-07-30T12:38:21.663Z,33.90
2018-07-30T12:40:49.429Z,33.70
2018-07-30T12:43:17.043Z,33.60
2018-07-30T12:45:45.662Z,33.60
2018-07-30T12:48:14.152Z,33.60
2018-07-30T12:50:42.038Z,33.60
2018-07-30T12:53:09.746Z,33.10
2018-07-30T12:55:37.869Z,32.80
2018-07-30T12:58:12.285Z,32.50
2018-07-30T13:00:43.223Z,32.60
2018-07-30T13:03:11.135Z,32.70
2018-07-30T13:05:38.977Z,32.90
2018-07-30T13:08:06.760Z,33.20
2018-07-30T13:10:34.627Z,33.30
2018-07-30T13:13:02.685Z,33.40
2018-07-30T13:15:30.666Z,33.40
2018-07-30T13:17:58.363Z,33.10
2018-07-30T13:22:54.842Z,33.40
2018-07-30T13:25:24.577Z,33.30
2018-07-30T13:27:52.361Z,33.40
2018-07-30T13:30:23.180Z,33.40
2018-07-30T13:32:53.506Z,33.30
2018-07-30T13:35:22.245Z,33.40
2018-07-30T13:37:49.938Z,33.60
2018-07-30T13:40:17.869Z,33.60
2018-07-30T13:42:48.118Z,33.50
2018-07-30T13:45:16.471Z,33.30
2018-07-30T13:47:44.726Z,33.10
2018-07-30T13:50:12.519Z,32.90
2018-07-30T13:52:40.261Z,32.80
2018-07-30T13:55:08.192Z,32.60
2018-07-30T13:57:36.227Z,32.60
2018-07-30T14:00:06.319Z,32.50
2018-07-30T14:02:34.001Z,32.40
2018-07-30T14:05:01.731Z,32.50
2018-07-30T14:07:29.518Z,32.60
2018-07-30T14:09:57.588Z,32.80
2018-07-30T14:12:25.440Z,33.00
2018-07-30T14:14:53.292Z,32.90
2018-07-30T14:17:21.119Z,32.80
2018-07-30T14:19:48.787Z,32.90
2018-07-30T14:22:16.752Z,33.00
2018-07-30T14:24:44.820Z,33.20
2018-07-30T14:29:40.410Z,33.20
2018-07-30T14:32:08.214Z,33.20
2018-07-30T14:34:36.096Z,33.30
2018-07-30T14:37:03.871Z,33.40
2018-07-30T14:39:31.780Z,33.20
2018-07-30T14:42:01.543Z,33.10
2018-07-30T14:44:29.558Z,33.20
2018-07-30T14:46:57.247Z,33.10
2018-07-30T14:49:25.931Z,33.10
2018-07-30T14:51:53.932Z,33.10
2018-07-30T14:54:21.628Z,33.20
2018-07-30T14:56:49.276Z,33.30
2018-07-30T14:59:17.306Z,33.40
2018-07-30T15:01:45.149Z,33.60
2018-07-30T15:04:13.116Z,33.70
2018-07-30T15:11:40.020Z,33.70
2018-07-30T15:14:07.875Z,33.60
2018-07-30T15:16:36.215Z,33.60
2018-07-30T15:19:04.588Z,33.40
2018-07-30T15:24:06.781Z,33.30
2018-07-30T15:26:59.445Z,33.30
2018-07-30T15:29:27.190Z,33.30
2018-07-30T15:31:55.118Z,33.30
2018-07-30T15:34:22.919Z,33.30
2018-07-30T15:39:18.783Z,33.30
2018-07-30T15:41:46.953Z,33.30
2018-07-30T15:44:14.783Z,33.30
2018-07-30T15:46:42.664Z,33.30
2018-07-30T15:49:10.421Z,33.30
2018-07-30T15:54:06.202Z,33.20
2018-07-30T15:56:34.071Z,33.20
2018-07-30T15:59:02.366Z,33.20
2018-07-30T16:01:30.031Z,33.20
2018-07-30T16:03:57.871Z,33.20
2018-07-30T16:06:44.326Z,33.10
2018-07-30T16:09:21.231Z,33.10
2018-07-30T16:11:48.974Z,33.10
2018-07-30T16:14:16.723Z,33.10
2018-07-30T16:16:44.434Z,33.10
2018-07-30T16:19:12.111Z,33.20
2018-07-30T16:21:40.079Z,33.20
2018-07-30T16:24:07.978Z,33.30
2018-07-30T16:26:35.852Z,33.40
2018-07-30T16:29:03.774Z,33.40
2018-07-30T16:31:31.404Z,33.40
2018-07-30T16:33:59.479Z,33.60
2018-07-30T16:36:27.327Z,33.50
2018-07-30T16:38:55.017Z,33.40
2018-07-30T16:41:23.080Z,33.40
2018-07-30T16:46:18.575Z,33.20
2018-07-30T16:48:46.245Z,33.10
2018-07-30T16:51:23.504Z,33.00
2018-07-30T16:54:02.329Z,32.90
2018-07-30T16:56:43.531Z,32.70
2018-07-30T16:59:23.175Z,32.60
2018-07-30T17:01:56.971Z,32.50
2018-07-30T17:04:24.759Z,32.40
2018-07-30T17:06:53.054Z,32.40
2018-07-30T17:11:48.507Z,32.30
2018-07-30T17:14:16.284Z,32.20
2018-07-30T17:16:44.038Z,32.10
2018-07-30T17:19:12.170Z,32.00
2018-07-30T17:21:40.203Z,32.00
2018-07-30T17:24:09.103Z,31.90
2018-07-30T17:26:38.132Z,31.80
2018-07-30T17:29:05.896Z,31.70
2018-07-30T17:31:33.951Z,31.70
2018-07-30T17:34:01.818Z,31.70
2018-07-30T17:36:32.359Z,31.70
2018-07-30T17:39:00.269Z,31.70
2018-07-30T17:41:29.900Z,31.60
2018-07-30T17:43:57.834Z,31.60
2018-07-30T17:46:26.993Z,31.50
2018-07-30T17:48:55.052Z,31.50
2018-07-30T17:51:26.553Z,31.30
2018-07-30T17:53:55.627Z,31.30
2018-07-30T17:56:23.447Z,31.30
2018-07-30T17:58:51.280Z,31.20
2018-07-30T18:01:19.624Z,31.00
2018-07-30T18:03:47.464Z,30.90
2018-07-30T18:06:15.176Z,30.80
2018-07-30T18:08:43.944Z,30.70
2018-07-30T18:11:12.259Z,30.50
2018-07-30T18:13:40.398Z,30.30
2018-07-30T18:16:08.087Z,30.20
2018-07-30T18:18:39.234Z,30.10
2018-07-30T18:21:12.371Z,30.00
2018-07-30T18:23:45.708Z,30.00
2018-07-30T18:26:13.433Z,29.90
2018-07-30T18:28:41.531Z,29.80
2018-07-30T18:31:09.610Z,29.70
2018-07-30T18:33:37.568Z,29.60
2018-07-30T18:36:05.326Z,29.40
2018-07-30T18:38:33.233Z,29.30
2018-07-30T18:41:00.940Z,29.10
2018-07-30T18:43:28.767Z,29.00
2018-07-30T18:45:56.460Z,28.80
2018-07-30T18:48:24.171Z,28.70
2018-07-30T18:50:52.333Z,28.50
2018-07-30T18:55:48.023Z,28.20
2018-07-30T18:58:15.723Z,28.10
2018-07-30T19:03:11.174Z,27.90
2018-07-30T19:05:38.955Z,27.80
2018-07-30T19:08:07.104Z,27.70
2018-07-30T19:10:35.589Z,27.60
2018-07-30T19:13:03.201Z,27.50
2018-07-30T19:15:30.852Z,27.40
2018-07-30T19:17:59.057Z,27.20
2018-07-30T19:20:26.692Z,27.00
2018-07-30T19:22:55.848Z,26.90
2018-07-30T19:25:25.180Z,26.70
2018-07-30T19:27:52.865Z,26.60
2018-07-30T19:30:22.781Z,26.50
2018-07-30T19:32:52.375Z,26.40
2018-07-30T19:35:21.263Z,26.30
2018-07-30T19:37:48.878Z,26.20
2018-07-30T19:40:16.628Z,26.10
2018-07-30T19:42:44.375Z,26.00
2018-07-30T19:45:12.062Z,25.90
2018-07-30T19:47:40.593Z,25.80
2018-07-30T19:50:08.514Z,25.70
2018-07-30T19:52:36.951Z,25.60
2018-07-30T19:55:05.096Z,25.50
2018-07-30T19:57:32.858Z,25.40
2018-07-30T20:00:02.166Z,25.30
2018-07-30T20:02:35.241Z,25.10
2018-07-30T20:05:03.274Z,25.00
2018-07-30T20:07:31.189Z,24.90
2018-07-30T20:09:58.876Z,24.80
2018-07-30T20:12:26.538Z,24.70
2018-07-30T20:14:54.232Z,24.60
2018-07-30T20:17:21.943Z,24.60
2018-07-30T20:19:49.603Z,24.40
2018-07-30T20:22:17.382Z,24.30
2018-07-30T20:24:45.165Z,24.10
2018-07-30T20:27:12.911Z,24.00
2018-07-30T20:29:42.644Z,24.00
2018-07-30T20:32:11.802Z,23.90
2018-07-30T20:34:41.851Z,23.90
2018-07-30T20:37:09.612Z,22.90
2018-07-30T20:39:37.403Z,23.90
2018-07-30T20:42:05.458Z,23.90
2018-07-30T20:44:36.029Z,23.80
2018-07-30T20:47:06.800Z,23.80
2018-07-30T20:49:36.196Z,23.80
2018-07-30T20:55:21.674Z,23.80
2018-07-30T20:57:49.451Z,23.80
2018-07-30T21:00:17.652Z,23.70
2018-07-30T21:02:45.377Z,23.70
2018-07-30T21:05:13.217Z,23.60
2018-07-30T21:07:41.179Z,23.50
2018-07-30T21:10:09.162Z,23.40
2018-07-30T21:12:38.474Z,23.20
2018-07-30T21:15:24.464Z,23.10
2018-07-30T21:17:52.158Z,23.00
2018-07-30T21:20:19.939Z,23.00
2018-07-30T21:22:47.795Z,22.90
2018-07-30T21:25:16.730Z,22.80
2018-07-30T21:27:44.458Z,22.80
2018-07-30T21:30:12.192Z,22.70
2018-07-30T21:32:40.031Z,22.70
2018-07-30T21:35:08.946Z,22.60
2018-07-30T21:37:36.710Z,22.60
2018-07-30T21:40:04.805Z,22.50
2018-07-30T21:42:32.523Z,22.40
2018-07-30T21:45:00.311Z,22.40
2018-07-30T21:47:28.176Z,22.40
2018-07-30T21:49:56.119Z,22.30
2018-07-30T21:52:23.815Z,22.30
2018-07-30T21:54:52.160Z,22.20
2018-07-30T21:57:19.899Z,22.20
2018-07-30T21:59:47.933Z,22.10
2018-07-30T22:02:15.869Z,22.00
2018-07-30T22:04:43.569Z,21.90
2018-07-30T22:07:11.267Z,21.80
2018-07-30T22:09:39.279Z,21.80
2018-07-30T22:12:07.329Z,21.70
2018-07-30T22:14:35.494Z,21.70
2018-07-30T22:19:31.041Z,21.60
2018-07-30T22:21:58.830Z,21.60
2018-07-30T22:24:26.816Z,21.50
2018-07-30T22:26:54.729Z,21.50
2018-07-30T22:29:22.503Z,21.60
2018-07-30T22:31:50.225Z,21.50
2018-07-30T22:34:18.623Z,21.40
2018-07-30T22:36:46.447Z,21.30
2018-07-30T22:39:14.181Z,21.20
2018-07-30T22:41:43.038Z,21.30
2018-07-30T22:44:10.750Z,21.50
2018-07-30T22:46:38.532Z,21.70
2018-07-30T22:49:06.837Z,21.70
2018-07-30T22:51:34.702Z,21.70
2018-07-30T22:54:02.675Z,21.70
2018-07-30T22:56:30.481Z,21.60
2018-07-30T22:58:58.234Z,21.40
2018-07-30T23:01:26.527Z,21.30
2018-07-30T23:03:54.571Z,21.10
2018-07-30T23:06:22.355Z,21.00
2018-07-30T23:08:50.152Z,20.90
2018-07-30T23:11:18.304Z,20.80
2018-07-30T23:13:47.212Z,20.80
2018-07-30T23:16:15.047Z,20.70
2018-07-30T23:18:42.844Z,20.70
2018-07-30T23:21:10.670Z,20.60
2018-07-30T23:23:38.411Z,20.70
2018-07-30T23:26:06.166Z,20.70
2018-07-30T23:28:33.896Z,20.60
2018-07-30T23:31:01.668Z,20.60
2018-07-30T23:35:57.511Z,20.50
2018-07-30T23:38:25.546Z,20.40
2018-07-30T23:40:53.245Z,20.30
2018-07-30T23:43:21.039Z,20.30
2018-07-30T23:45:48.747Z,20.20
2018-07-30T23:48:16.664Z,20.20
2018-07-30T23:50:44.430Z,20.10
2018-07-30T23:53:12.496Z,20.00
2018-07-30T23:55:40.287Z,20.00
2018-07-30T23:58:08.105Z,20.00
